Hauptseite
METAR-TAF:

METAR-TAF

Flughäfen :

Flughafen Verona

Verona, Italien

Breite: 45-23N, Länge: 010-52E, Höhe: 67 m

Beobachtung

Neuester Wetterbericht von vor 24 Minuten, um 20:20 UTC
Wind 2 kt aus unterschiedlichen Richtungen
Temperatur -3°C
Luftfeuchtigkeit 86%
Luftdruck 1020 hPa
Sichtweite: 8000 m

METAR: LIPX 152020Z VRB02KT 8000 NSC M03/M05 Q1020

Zeit: 21:44 (20:44 UTC)

Prognose

Neuester Wetterbericht von vor 44 Minuten, um 20:00 UTC
Gültige Prognose vom 15 um 21 UTC bis 16 um 06 UTC
Wind 5 kt aus unterschiedlichen Richtungen
Sichtweite 10 km oder mehr
keine Wolken unter 1500 m und keine Kumulonimbus oder Gewitterwolken

TAF: LIPX 152000Z 1521/1606 VRB05KT CAVOK

Wetterbeobachtungen und Prognosen von mehr als 4000 Flughäfen (METAR und TAF Bericht).

Die verfügbaren Stationen werden durch gelbe und rote Markierungen auf der Karte dargestellt.

Führen Sie die Maus auf sie, um den Namen der Station zu sehen.

Darauf klicken, um die Beobachtung von Wetterbeobachtungen und Prognosen zu sehen.

Um die Karte zu ändern : klicken Sie auf den grünen Tasten mit einem schwarzen Kreuz Zum Vergrößern, auf den grünen Button mit einem Gedankenstrich zu verkleinern, oder auf die grünen Pfeile für benachbarte Karten.


METAR-TAF: